TimeEST,TemperatureF,Dew PointF,Humidity,Sea Level PressureIn,VisibilityMPH,Wind Direction,Wind SpeedMPH,Gust SpeedMPH,PrecipitationIn,Events,Conditions,WindDirDegrees,DateUTC
12:51 AM,37.4,37.4,100,-9999,0.0,WSW,59.8,69.0,N/A,Fog,Fog,240,2012-12-05 05:51:00
1:47 AM,37.4,37.4,100,-9999,0.0,WSW,55.2,70.2,N/A,Fog-Rain,Light Rain Showers,240,2012-12-05 06:47:00
2:48 AM,37.4,37.4,100,-9999,0.0,WSW,51.8,67.9,N/A,Fog-Rain,Light Rain Showers,240,2012-12-05 07:48:00
3:50 AM,32.0,32.0,100,-9999,0.0,WNW,44.9,-,N/A,Fog-Rain,Light Freezing Rain,300,2012-12-05 08:50:00
4:48 AM,28.4,28.4,100,-9999,0.1,WNW,51.8,59.8,N/A,Fog-Snow,Snow,300,2012-12-05 09:48:00
5:54 AM,28.4,28.4,100,-9999,0.0,West,47.2,-,N/A,Fog-Snow,Snow,280,2012-12-05 10:54:00
6:55 AM,26.6,26.6,100,-9999,0.0,WNW,63.3,77.1,N/A,Fog,Light Freezing Fog,300,2012-12-05 11:55:00
7:54 AM,24.8,24.8,100,-9999,0.0,WNW,64.4,79.4,N/A,Fog,Light Freezing Fog,290,2012-12-05 12:54:00
9:48 AM,21.2,21.2,100,-9999,0.0,WNW,64.4,70.2,N/A,Fog,Light Freezing Fog,290,2012-12-05 14:48:00
10:49 AM,21.2,21.2,100,-9999,0.0,WNW,61.0,74.8,N/A,Fog,Light Freezing Fog,290,2012-12-05 15:49:00
11:57 AM,19.4,19.4,100,-9999,0.1,WNW,59.8,-,N/A,Fog-Snow,Blowing Snow,290,2012-12-05 16:57:00
12:47 PM,17.6,17.6,100,-9999,0.1,WNW,56.4,65.6,N/A,Fog-Snow,Blowing Snow,300,2012-12-05 17:47:00
1:51 PM,14.0,14.0,100,-9999,0.0,WNW,61.0,64.4,N/A,Fog-Snow,Blowing Snow,290,2012-12-05 18:51:00
2:48 PM,12.2,12.2,100,-9999,0.0,WNW,57.5,66.7,N/A,Fog-Snow,Blowing Snow,290,2012-12-05 19:48:00
3:49 PM,8.6,8.6,100,-9999,0.0,WNW,66.7,74.8,N/A,Fog-Snow,Light Snow Showers,300,2012-12-05 20:49:00
4:53 PM,6.8,6.8,100,-9999,0.0,WNW,78.3,84.0,N/A,Fog-Snow,Light Snow Showers,300,2012-12-05 21:53:00
5:53 PM,5.0,5.0,100,-9999,0.0,WNW,73.6,-,N/A,Fog-Snow,Light Snow Showers,300,2012-12-05 22:53:00
6:53 PM,5.0,5.0,100,-9999,0.0,NW,67.9,72.5,N/A,Fog-Snow,Light Snow Showers,310,2012-12-05 23:53:00
7:54 PM,3.2,3.2,100,-9999,0.0,WNW,62.1,71.3,N/A,Fog-Snow,Light Snow,300,2012-12-06 00:54:00
8:53 PM,3.2,3.2,100,-9999,0.0,WNW,63.3,71.3,N/A,Fog-Snow,Light Snow,300,2012-12-06 01:53:00
9:55 PM,1.4,1.4,100,-9999,0.0,WNW,58.7,66.7,N/A,Fog-Snow,Light Snow,300,2012-12-06 02:55:00
10:55 PM,3.2,3.2,100,-9999,0.0,WNW,61.0,66.7,N/A,Fog-Snow,Light Snow,300,2012-12-06 03:55:00
11:52 PM,3.2,3.2,100,-9999,0.0,WNW,66.7,72.5,N/A,Fog-Snow,Light Snow,300,2012-12-06 04:52:00